sensor_id;sensor_type;location;lat;lon;timestamp;temperature;humidity
62555;DHT22;48610;52.144;8.624;2022-09-23T00:01:38;10.10;99.90
62555;DHT22;48610;52.144;8.624;2022-09-23T00:04:38;10.00;99.90
62555;DHT22;48610;52.144;8.624;2022-09-23T00:07:40;10.00;99.90
62555;DHT22;48610;52.144;8.624;2022-09-23T00:10:41;10.00;99.90
62555;DHT22;48610;52.144;8.624;2022-09-23T00:13:43;10.00;99.90
62555;DHT22;48610;52.144;8.624;2022-09-23T00:16:44;10.00;99.90
62555;DHT22;48610;52.144;8.624;2022-09-23T00:19:45;10.00;99.90
62555;DHT22;48610;52.144;8.624;2022-09-23T00:22:46;9.90;99.90
62555;DHT22;48610;52.144;8.624;2022-09-23T00:25:55;9.90;99.90
62555;DHT22;48610;52.144;8.624;2022-09-23T00:28:56;9.90;99.90
62555;DHT22;48610;52.144;8.624;2022-09-23T00:31:57;10.00;99.90
62555;DHT22;48610;52.144;8.624;2022-09-23T00:34:58;9.90;99.90
62555;DHT22;48610;52.144;8.624;2022-09-23T00:37:59;9.90;99.90
62555;DHT22;48610;52.144;8.624;2022-09-23T00:41:00;9.80;99.90
62555;DHT22;48610;52.144;8.624;2022-09-23T00:44:01;9.80;99.90
62555;DHT22;48610;52.144;8.624;2022-09-23T00:47:02;9.80;99.90
62555;DHT22;48610;52.144;8.624;2022-09-23T00:50:36;9.80;99.90
62555;DHT22;48610;52.144;8.624;2022-09-23T00:53:38;9.80;99.90
62555;DHT22;48610;52.144;8.624;2022-09-23T00:56:39;9.80;99.90
62555;DHT22;48610;52.144;8.624;2022-09-23T00:59:41;9.80;99.90
62555;DHT22;48610;52.144;8.624;2022-09-23T01:02:42;9.70;99.90
62555;DHT22;48610;52.144;8.624;2022-09-23T01:05:42;9.60;99.90
62555;DHT22;48610;52.144;8.624;2022-09-23T01:08:44;9.70;99.90
62555;DHT22;48610;52.144;8.624;2022-09-23T01:11:56;9.80;99.90
62555;DHT22;48610;52.144;8.624;2022-09-23T01:15:45;9.80;99.90
62555;DHT22;48610;52.144;8.624;2022-09-23T01:18:46;9.80;99.90
62555;DHT22;48610;52.144;8.624;2022-09-23T01:21:56;9.70;99.90
62555;DHT22;48610;52.144;8.624;2022-09-23T01:25:05;9.70;99.90
62555;DHT22;48610;52.144;8.624;2022-09-23T01:31:41;9.60;99.90
62555;DHT22;48610;52.144;8.624;2022-09-23T01:34:53;9.60;99.90
62555;DHT22;48610;52.144;8.624;2022-09-23T01:44:27;9.30;99.90
62555;DHT22;48610;52.144;8.624;2022-09-23T01:47:33;9.30;99.90
62555;DHT22;48610;52.144;8.624;2022-09-23T01:50:41;9.30;99.90
62555;DHT22;48610;52.144;8.624;2022-09-23T01:54:37;9.20;99.90
62555;DHT22;48610;52.144;8.624;2022-09-23T01:57:45;9.30;99.90
62555;DHT22;48610;52.144;8.624;2022-09-23T02:01:05;9.30;99.90
62555;DHT22;48610;52.144;8.624;2022-09-23T02:04:15;9.30;99.90
62555;DHT22;48610;52.144;8.624;2022-09-23T02:10:35;9.40;99.90
62555;DHT22;48610;52.144;8.624;2022-09-23T02:16:45;9.40;99.90
62555;DHT22;48610;52.144;8.624;2022-09-23T02:19:53;9.30;99.90
62555;DHT22;48610;52.144;8.624;2022-09-23T02:23:08;9.30;99.90
62555;DHT22;48610;52.144;8.624;2022-09-23T02:30:00;9.30;99.90
62555;DHT22;48610;52.144;8.624;2022-09-23T02:33:24;9.30;99.90
62555;DHT22;48610;52.144;8.624;2022-09-23T02:37:13;9.30;99.90
62555;DHT22;48610;52.144;8.624;2022-09-23T02:46:20;9.40;99.90
62555;DHT22;48610;52.144;8.624;2022-09-23T02:49:30;9.30;99.90
62555;DHT22;48610;52.144;8.624;2022-09-23T02:52:31;9.30;99.90
62555;DHT22;48610;52.144;8.624;2022-09-23T02:55:32;9.30;99.90
62555;DHT22;48610;52.144;8.624;2022-09-23T02:58:33;9.30;99.90
62555;DHT22;48610;52.144;8.624;2022-09-23T03:01:55;9.30;99.90
62555;DHT22;48610;52.144;8.624;2022-09-23T03:05:09;9.40;99.90
62555;DHT22;48610;52.144;8.624;2022-09-23T03:08:22;9.40;99.90
62555;DHT22;48610;52.144;8.624;2022-09-23T03:11:27;9.50;99.90
62555;DHT22;48610;52.144;8.624;2022-09-23T03:14:38;9.60;99.90
62555;DHT22;48610;52.144;8.624;2022-09-23T03:17:55;9.60;99.90
62555;DHT22;48610;52.144;8.624;2022-09-23T03:21:02;9.60;99.90
62555;DHT22;48610;52.144;8.624;2022-09-23T03:24:07;9.60;99.90
62555;DHT22;48610;52.144;8.624;2022-09-23T03:27:13;9.60;99.90
62555;DHT22;48610;52.144;8.624;2022-09-23T03:30:16;9.60;99.90
62555;DHT22;48610;52.144;8.624;2022-09-23T03:33:20;9.60;99.90
62555;DHT22;48610;52.144;8.624;2022-09-23T03:36:27;9.60;99.90
62555;DHT22;48610;52.144;8.624;2022-09-23T03:39:51;9.60;99.90
62555;DHT22;48610;52.144;8.624;2022-09-23T03:42:55;9.70;99.90
62555;DHT22;48610;52.144;8.624;2022-09-23T03:45:57;9.80;99.90
62555;DHT22;48610;52.144;8.624;2022-09-23T03:49:04;9.70;99.90
62555;DHT22;48610;52.144;8.624;2022-09-23T03:52:08;9.80;99.90
62555;DHT22;48610;52.144;8.624;2022-09-23T03:55:09;9.80;99.90
62555;DHT22;48610;52.144;8.624;2022-09-23T03:58:10;9.70;99.90
62555;DHT22;48610;52.144;8.624;2022-09-23T04:01:11;9.80;99.90
62555;DHT22;48610;52.144;8.624;2022-09-23T04:04:13;9.70;99.90
62555;DHT22;48610;52.144;8.624;2022-09-23T04:07:14;9.70;99.90
62555;DHT22;48610;52.144;8.624;2022-09-23T04:10:15;9.70;99.90
62555;DHT22;48610;52.144;8.624;2022-09-23T04:13:15;9.70;99.90
62555;DHT22;48610;52.144;8.624;2022-09-23T04:16:16;9.60;99.90
62555;DHT22;48610;52.144;8.624;2022-09-23T04:19:17;9.70;99.90
62555;DHT22;48610;52.144;8.624;2022-09-23T04:22:18;9.70;99.90
62555;DHT22;48610;52.144;8.624;2022-09-23T04:25:18;9.70;99.90
62555;DHT22;48610;52.144;8.624;2022-09-23T04:28:20;9.70;99.90
62555;DHT22;48610;52.144;8.624;2022-09-23T04:31:21;9.60;99.90
62555;DHT22;48610;52.144;8.624;2022-09-23T04:34:24;9.60;99.90
62555;DHT22;48610;52.144;8.624;2022-09-23T04:37:25;9.60;99.90
62555;DHT22;48610;52.144;8.624;2022-09-23T04:40:25;9.60;99.90
62555;DHT22;48610;52.144;8.624;2022-09-23T04:43:26;9.60;99.90
62555;DHT22;48610;52.144;8.624;2022-09-23T04:46:27;9.60;99.90
62555;DHT22;48610;52.144;8.624;2022-09-23T04:49:27;9.60;99.90
62555;DHT22;48610;52.144;8.624;2022-09-23T04:52:31;9.60;99.90
62555;DHT22;48610;52.144;8.624;2022-09-23T04:55:31;9.60;99.90
62555;DHT22;48610;52.144;8.624;2022-09-23T04:58:32;9.50;99.90
62555;DHT22;48610;52.144;8.624;2022-09-23T05:01:34;9.70;99.90
62555;DHT22;48610;52.144;8.624;2022-09-23T05:04:35;9.60;99.90
62555;DHT22;48610;52.144;8.624;2022-09-23T05:07:38;9.60;99.90
62555;DHT22;48610;52.144;8.624;2022-09-23T05:10:39;9.60;99.90
62555;DHT22;48610;52.144;8.624;2022-09-23T05:13:39;9.70;99.90
62555;DHT22;48610;52.144;8.624;2022-09-23T05:16:40;9.70;99.90
62555;DHT22;48610;52.144;8.624;2022-09-23T05:19:41;9.60;99.90
62555;DHT22;48610;52.144;8.624;2022-09-23T05:22:41;9.60;99.90
62555;DHT22;48610;52.144;8.624;2022-09-23T05:25:42;9.70;99.90
62555;DHT22;48610;52.144;8.624;2022-09-23T05:28:44;9.70;99.90
62555;DHT22;48610;52.144;8.624;2022-09-23T05:31:45;9.60;99.90
62555;DHT22;48610;52.144;8.624;2022-09-23T05:34:45;9.60;99.90
62555;DHT22;48610;52.144;8.624;2022-09-23T05:37:46;9.60;99.90
62555;DHT22;48610;52.144;8.624;2022-09-23T05:43:57;9.60;99.90
62555;DHT22;48610;52.144;8.624;2022-09-23T05:46:59;9.70;99.90
62555;DHT22;48610;52.144;8.624;2022-09-23T05:49:59;9.70;99.90
62555;DHT22;48610;52.144;8.624;2022-09-23T05:53:00;9.80;99.90
62555;DHT22;48610;52.144;8.624;2022-09-23T05:56:00;9.70;99.90
62555;DHT22;48610;52.144;8.624;2022-09-23T05:59:02;9.70;99.90
62555;DHT22;48610;52.144;8.624;2022-09-23T06:02:03;9.70;99.90
62555;DHT22;48610;52.144;8.624;2022-09-23T06:05:04;9.70;99.90
62555;DHT22;48610;52.144;8.624;2022-09-23T06:08:05;9.70;99.90
62555;DHT22;48610;52.144;8.624;2022-09-23T06:11:07;9.70;99.90
62555;DHT22;48610;52.144;8.624;2022-09-23T06:14:11;9.70;99.90
62555;DHT22;48610;52.144;8.624;2022-09-23T06:17:12;9.70;99.90
62555;DHT22;48610;52.144;8.624;2022-09-23T06:20:15;9.70;99.90
62555;DHT22;48610;52.144;8.624;2022-09-23T06:23:16;9.60;99.90
62555;DHT22;48610;52.144;8.624;2022-09-23T06:26:16;9.70;99.90
62555;DHT22;48610;52.144;8.624;2022-09-23T06:29:17;9.70;99.90
62555;DHT22;48610;52.144;8.624;2022-09-23T06:32:18;9.70;99.90
62555;DHT22;48610;52.144;8.624;2022-09-23T06:35:22;9.80;99.90
62555;DHT22;48610;52.144;8.624;2022-09-23T06:38:26;10.00;99.90
62555;DHT22;48610;52.144;8.624;2022-09-23T06:41:27;10.20;99.90
62555;DHT22;48610;52.144;8.624;2022-09-23T06:44:28;10.40;99.90
62555;DHT22;48610;52.144;8.624;2022-09-23T06:47:28;10.40;99.90
62555;DHT22;48610;52.144;8.624;2022-09-23T06:50:29;10.60;99.90
62555;DHT22;48610;52.144;8.624;2022-09-23T06:53:30;10.60;99.90
62555;DHT22;48610;52.144;8.624;2022-09-23T06:56:31;10.60;99.90
62555;DHT22;48610;52.144;8.624;2022-09-23T06:59:32;10.70;99.90
62555;DHT22;48610;52.144;8.624;2022-09-23T07:02:33;11.00;99.90
62555;DHT22;48610;52.144;8.624;2022-09-23T07:05:34;11.20;99.90
62555;DHT22;48610;52.144;8.624;2022-09-23T07:08:34;11.10;99.90
62555;DHT22;48610;52.144;8.624;2022-09-23T07:11:35;11.10;99.90
62555;DHT22;48610;52.144;8.624;2022-09-23T07:14:37;11.00;99.90
62555;DHT22;48610;52.144;8.624;2022-09-23T07:17:40;11.20;99.90
62555;DHT22;48610;52.144;8.624;2022-09-23T07:20:42;11.30;99.90
62555;DHT22;48610;52.144;8.624;2022-09-23T07:23:44;11.30;99.90
62555;DHT22;48610;52.144;8.624;2022-09-23T07:26:45;11.30;99.90
62555;DHT22;48610;52.144;8.624;2022-09-23T07:29:45;11.30;99.90
62555;DHT22;48610;52.144;8.624;2022-09-23T07:32:47;11.50;99.90
62555;DHT22;48610;52.144;8.624;2022-09-23T07:35:48;11.70;99.90
62555;DHT22;48610;52.144;8.624;2022-09-23T07:38:48;11.80;99.90
62555;DHT22;48610;52.144;8.624;2022-09-23T07:41:49;12.00;99.90
62555;DHT22;48610;52.144;8.624;2022-09-23T07:44:50;12.00;99.90
62555;DHT22;48610;52.144;8.624;2022-09-23T07:47:52;12.20;99.90
62555;DHT22;48610;52.144;8.624;2022-09-23T07:50:52;12.30;99.90
62555;DHT22;48610;52.144;8.624;2022-09-23T07:53:54;12.40;99.90
62555;DHT22;48610;52.144;8.624;2022-09-23T07:56:55;12.40;99.90
62555;DHT22;48610;52.144;8.624;2022-09-23T07:59:55;12.50;99.90
62555;DHT22;48610;52.144;8.624;2022-09-23T08:02:56;12.60;99.90
62555;DHT22;48610;52.144;8.624;2022-09-23T08:06:11;12.60;99.90
62555;DHT22;48610;52.144;8.624;2022-09-23T08:09:12;12.80;99.90
62555;DHT22;48610;52.144;8.624;2022-09-23T08:12:15;12.70;99.90
62555;DHT22;48610;52.144;8.624;2022-09-23T08:15:16;12.80;99.90
62555;DHT22;48610;52.144;8.624;2022-09-23T08:18:17;12.90;99.90
62555;DHT22;48610;52.144;8.624;2022-09-23T08:21:19;12.90;99.90
62555;DHT22;48610;52.144;8.624;2022-09-23T08:24:21;13.10;99.90
62555;DHT22;48610;52.144;8.624;2022-09-23T08:27:23;13.20;99.90
62555;DHT22;48610;52.144;8.624;2022-09-23T08:30:24;13.10;99.90
62555;DHT22;48610;52.144;8.624;2022-09-23T08:33:25;13.20;99.90
62555;DHT22;48610;52.144;8.624;2022-09-23T08:36:26;13.40;99.90
62555;DHT22;48610;52.144;8.624;2022-09-23T08:39:26;13.60;99.90
62555;DHT22;48610;52.144;8.624;2022-09-23T08:42:30;13.80;99.90
62555;DHT22;48610;52.144;8.624;2022-09-23T08:45:33;14.10;99.90
62555;DHT22;48610;52.144;8.624;2022-09-23T08:48:42;14.20;99.90
62555;DHT22;48610;52.144;8.624;2022-09-23T08:51:45;14.40;99.90
62555;DHT22;48610;52.144;8.624;2022-09-23T08:54:46;14.50;99.90
62555;DHT22;48610;52.144;8.624;2022-09-23T09:01:42;14.80;98.70
62555;DHT22;48610;52.144;8.624;2022-09-23T09:04:54;14.90;98.40
62555;DHT22;48610;52.144;8.624;2022-09-23T09:08:00;14.90;98.60
62555;DHT22;48610;52.144;8.624;2022-09-23T09:11:04;15.00;98.60
62555;DHT22;48610;52.144;8.624;2022-09-23T09:14:42;15.20;98.90
62555;DHT22;48610;52.144;8.624;2022-09-23T09:18:00;15.20;99.00
62555;DHT22;48610;52.144;8.624;2022-09-23T09:21:11;15.30;98.50
62555;DHT22;48610;52.144;8.624;2022-09-23T09:24:27;15.50;98.30
62555;DHT22;48610;52.144;8.624;2022-09-23T09:27:29;15.70;97.80
62555;DHT22;48610;52.144;8.624;2022-09-23T09:30:31;15.70;97.40
62555;DHT22;48610;52.144;8.624;2022-09-23T09:37:06;16.00;96.70
62555;DHT22;48610;52.144;8.624;2022-09-23T09:40:12;15.90;97.10
62555;DHT22;48610;52.144;8.624;2022-09-23T09:43:17;15.90;97.80
62555;DHT22;48610;52.144;8.624;2022-09-23T09:46:41;16.20;97.70
62555;DHT22;48610;52.144;8.624;2022-09-23T09:49:53;16.30;96.80
62555;DHT22;48610;52.144;8.624;2022-09-23T09:53:21;16.30;97.70
62555;DHT22;48610;52.144;8.624;2022-09-23T09:56:31;16.70;97.40
62555;DHT22;48610;52.144;8.624;2022-09-23T09:59:33;16.90;96.10
62555;DHT22;48610;52.144;8.624;2022-09-23T10:02:36;17.10;95.20
62555;DHT22;48610;52.144;8.624;2022-09-23T10:09:02;17.10;95.10
62555;DHT22;48610;52.144;8.624;2022-09-23T10:12:21;17.20;96.60
62555;DHT22;48610;52.144;8.624;2022-09-23T10:18:30;17.30;95.00
62555;DHT22;48610;52.144;8.624;2022-09-23T10:21:34;17.30;95.20
62555;DHT22;48610;52.144;8.624;2022-09-23T10:24:35;17.40;94.90
62555;DHT22;48610;52.144;8.624;2022-09-23T10:27:36;17.60;94.50
62555;DHT22;48610;52.144;8.624;2022-09-23T10:30:38;17.60;93.90
62555;DHT22;48610;52.144;8.624;2022-09-23T10:33:47;17.50;95.50
62555;DHT22;48610;52.144;8.624;2022-09-23T10:37:12;17.40;95.60
62555;DHT22;48610;52.144;8.624;2022-09-23T10:40:35;17.40;93.90
62555;DHT22;48610;52.144;8.624;2022-09-23T10:44:23;17.40;93.00
62555;DHT22;48610;52.144;8.624;2022-09-23T10:47:50;17.50;94.60
62555;DHT22;48610;52.144;8.624;2022-09-23T10:50:53;17.50;93.30
62555;DHT22;48610;52.144;8.624;2022-09-23T10:54:07;17.70;93.70
62555;DHT22;48610;52.144;8.624;2022-09-23T11:07:21;17.80;93.20
62555;DHT22;48610;52.144;8.624;2022-09-23T11:17:35;17.30;90.80
62555;DHT22;48610;52.144;8.624;2022-09-23T11:21:05;17.50;91.70
62555;DHT22;48610;52.144;8.624;2022-09-23T11:31:10;18.10;91.30
62555;DHT22;48610;52.144;8.624;2022-09-23T11:37:45;17.70;91.10
62555;DHT22;48610;52.144;8.624;2022-09-23T11:40:49;17.80;90.30
62555;DHT22;48610;52.144;8.624;2022-09-23T11:44:06;18.00;90.80
62555;DHT22;48610;52.144;8.624;2022-09-23T11:47:23;17.80;90.00
62555;DHT22;48610;52.144;8.624;2022-09-23T11:50:31;17.70;90.30
62555;DHT22;48610;52.144;8.624;2022-09-23T11:53:42;17.70;90.10
62555;DHT22;48610;52.144;8.624;2022-09-23T11:56:52;17.60;91.10
62555;DHT22;48610;52.144;8.624;2022-09-23T12:00:06;17.60;91.10
62555;DHT22;48610;52.144;8.624;2022-09-23T12:03:43;17.60;90.40
62555;DHT22;48610;52.144;8.624;2022-09-23T12:07:25;17.70;90.30
62555;DHT22;48610;52.144;8.624;2022-09-23T12:10:16;17.50;90.00
62555;DHT22;48610;52.144;8.624;2022-09-23T12:13:44;17.60;90.20
62555;DHT22;48610;52.144;8.624;2022-09-23T12:23:45;17.50;89.50
62555;DHT22;48610;52.144;8.624;2022-09-23T12:26:51;17.40;89.30
62555;DHT22;48610;52.144;8.624;2022-09-23T12:30:04;17.60;90.20
62555;DHT22;48610;52.144;8.624;2022-09-23T12:33:32;17.70;91.20
62555;DHT22;48610;52.144;8.624;2022-09-23T12:36:34;17.90;89.70
62555;DHT22;48610;52.144;8.624;2022-09-23T12:39:36;18.10;88.80
62555;DHT22;48610;52.144;8.624;2022-09-23T12:42:43;17.90;87.90
62555;DHT22;48610;52.144;8.624;2022-09-23T12:45:45;17.90;90.00
62555;DHT22;48610;52.144;8.624;2022-09-23T12:58:40;18.10;88.10
62555;DHT22;48610;52.144;8.624;2022-09-23T13:01:57;18.20;89.70
62555;DHT22;48610;52.144;8.624;2022-09-23T13:05:24;18.30;89.50
62555;DHT22;48610;52.144;8.624;2022-09-23T13:08:45;18.60;87.40
62555;DHT22;48610;52.144;8.624;2022-09-23T13:11:47;18.60;85.70
62555;DHT22;48610;52.144;8.624;2022-09-23T13:14:49;18.60;87.20
62555;DHT22;48610;52.144;8.624;2022-09-23T13:17:51;18.60;86.40
62555;DHT22;48610;52.144;8.624;2022-09-23T13:20:54;18.60;86.40
62555;DHT22;48610;52.144;8.624;2022-09-23T13:27:21;18.30;84.50
62555;DHT22;48610;52.144;8.624;2022-09-23T13:30:24;18.40;85.00
62555;DHT22;48610;52.144;8.624;2022-09-23T13:33:30;18.40;86.40
62555;DHT22;48610;52.144;8.624;2022-09-23T13:36:43;18.40;85.80
62555;DHT22;48610;52.144;8.624;2022-09-23T13:39:44;18.40;87.10
62555;DHT22;48610;52.144;8.624;2022-09-23T13:42:52;18.20;84.50
62555;DHT22;48610;52.144;8.624;2022-09-23T13:45:54;18.10;84.70
62555;DHT22;48610;52.144;8.624;2022-09-23T13:48:55;18.30;85.80
62555;DHT22;48610;52.144;8.624;2022-09-23T13:51:56;18.20;85.20
62555;DHT22;48610;52.144;8.624;2022-09-23T13:54:57;17.90;85.30
62555;DHT22;48610;52.144;8.624;2022-09-23T13:58:19;17.80;85.80
62555;DHT22;48610;52.144;8.624;2022-09-23T14:01:32;18.00;85.20
62555;DHT22;48610;52.144;8.624;2022-09-23T14:04:37;17.90;88.10
62555;DHT22;48610;52.144;8.624;2022-09-23T14:07:37;17.90;87.30
62555;DHT22;48610;52.144;8.624;2022-09-23T14:10:39;17.90;87.60
62555;DHT22;48610;52.144;8.624;2022-09-23T14:13:43;17.90;85.80
62555;DHT22;48610;52.144;8.624;2022-09-23T14:16:46;17.80;87.70
62555;DHT22;48610;52.144;8.624;2022-09-23T14:19:49;17.80;87.90
62555;DHT22;48610;52.144;8.624;2022-09-23T14:23:06;17.90;89.30
62555;DHT22;48610;52.144;8.624;2022-09-23T14:26:08;17.90;87.90
62555;DHT22;48610;52.144;8.624;2022-09-23T14:29:13;17.90;89.00
62555;DHT22;48610;52.144;8.624;2022-09-23T14:32:25;18.10;89.00
62555;DHT22;48610;52.144;8.624;2022-09-23T14:35:39;18.20;88.60
62555;DHT22;48610;52.144;8.624;2022-09-23T14:38:41;18.10;88.30
62555;DHT22;48610;52.144;8.624;2022-09-23T14:41:51;17.90;87.30
62555;DHT22;48610;52.144;8.624;2022-09-23T14:44:52;17.90;88.60
62555;DHT22;48610;52.144;8.624;2022-09-23T14:47:57;17.80;88.30
62555;DHT22;48610;52.144;8.624;2022-09-23T14:51:01;17.70;89.80
62555;DHT22;48610;52.144;8.624;2022-09-23T14:57:38;17.60;88.50
62555;DHT22;48610;52.144;8.624;2022-09-23T15:00:51;17.70;90.10
62555;DHT22;48610;52.144;8.624;2022-09-23T15:03:54;17.70;89.00
62555;DHT22;48610;52.144;8.624;2022-09-23T15:07:14;17.80;88.50
62555;DHT22;48610;52.144;8.624;2022-09-23T15:10:22;17.70;89.70
62555;DHT22;48610;52.144;8.624;2022-09-23T15:13:30;17.70;90.10
62555;DHT22;48610;52.144;8.624;2022-09-23T15:16:31;17.80;90.00
62555;DHT22;48610;52.144;8.624;2022-09-23T15:19:33;18.00;89.80
62555;DHT22;48610;52.144;8.624;2022-09-23T15:22:43;18.10;89.90
62555;DHT22;48610;52.144;8.624;2022-09-23T15:25:44;18.10;87.90
62555;DHT22;48610;52.144;8.624;2022-09-23T15:28:51;18.20;88.00
62555;DHT22;48610;52.144;8.624;2022-09-23T15:31:53;18.20;89.00
62555;DHT22;48610;52.144;8.624;2022-09-23T15:34:54;18.20;87.50
62555;DHT22;48610;52.144;8.624;2022-09-23T15:37:56;18.10;87.10
62555;DHT22;48610;52.144;8.624;2022-09-23T15:40:58;18.20;88.30
62555;DHT22;48610;52.144;8.624;2022-09-23T15:44:06;18.20;89.20
62555;DHT22;48610;52.144;8.624;2022-09-23T15:47:15;18.20;87.30
62555;DHT22;48610;52.144;8.624;2022-09-23T15:50:18;18.00;88.30
62555;DHT22;48610;52.144;8.624;2022-09-23T15:53:24;18.00;90.10
62555;DHT22;48610;52.144;8.624;2022-09-23T15:56:26;17.90;90.20
62555;DHT22;48610;52.144;8.624;2022-09-23T15:59:27;17.90;90.00
62555;DHT22;48610;52.144;8.624;2022-09-23T16:02:30;18.00;89.60
62555;DHT22;48610;52.144;8.624;2022-09-23T16:05:37;17.90;90.20
62555;DHT22;48610;52.144;8.624;2022-09-23T16:08:38;18.00;89.90
62555;DHT22;48610;52.144;8.624;2022-09-23T16:11:46;18.00;90.20
62555;DHT22;48610;52.144;8.624;2022-09-23T16:14:47;18.00;90.60
62555;DHT22;48610;52.144;8.624;2022-09-23T16:17:48;18.00;90.60
62555;DHT22;48610;52.144;8.624;2022-09-23T16:20:49;17.70;92.00
62555;DHT22;48610;52.144;8.624;2022-09-23T16:23:51;17.60;93.00
62555;DHT22;48610;52.144;8.624;2022-09-23T16:26:52;17.50;93.10
62555;DHT22;48610;52.144;8.624;2022-09-23T16:29:59;17.50;93.40
62555;DHT22;48610;52.144;8.624;2022-09-23T16:32:59;17.40;94.20
62555;DHT22;48610;52.144;8.624;2022-09-23T16:36:01;17.30;95.70
62555;DHT22;48610;52.144;8.624;2022-09-23T16:39:05;17.20;95.10
62555;DHT22;48610;52.144;8.624;2022-09-23T16:42:05;17.20;95.70
62555;DHT22;48610;52.144;8.624;2022-09-23T16:45:07;17.10;95.50
62555;DHT22;48610;52.144;8.624;2022-09-23T16:48:07;17.10;95.70
62555;DHT22;48610;52.144;8.624;2022-09-23T16:51:19;17.00;96.80
62555;DHT22;48610;52.144;8.624;2022-09-23T16:54:20;17.00;96.50
62555;DHT22;48610;52.144;8.624;2022-09-23T16:57:23;16.90;96.30
62555;DHT22;48610;52.144;8.624;2022-09-23T17:00:23;16.90;96.30
62555;DHT22;48610;52.144;8.624;2022-09-23T17:03:43;16.80;97.10
62555;DHT22;48610;52.144;8.624;2022-09-23T17:06:51;16.70;98.00
62555;DHT22;48610;52.144;8.624;2022-09-23T17:09:51;16.60;98.00
62555;DHT22;48610;52.144;8.624;2022-09-23T17:12:52;16.50;98.20
62555;DHT22;48610;52.144;8.624;2022-09-23T17:15:55;16.40;98.80
62555;DHT22;48610;52.144;8.624;2022-09-23T17:18:56;16.40;98.70
62555;DHT22;48610;52.144;8.624;2022-09-23T17:21:57;16.40;98.50
62555;DHT22;48610;52.144;8.624;2022-09-23T17:24:58;16.30;99.10
62555;DHT22;48610;52.144;8.624;2022-09-23T17:28:00;16.20;98.90
62555;DHT22;48610;52.144;8.624;2022-09-23T17:31:02;16.10;99.90
62555;DHT22;48610;52.144;8.624;2022-09-23T17:34:03;16.20;99.90
62555;DHT22;48610;52.144;8.624;2022-09-23T17:37:04;16.10;99.60
62555;DHT22;48610;52.144;8.624;2022-09-23T17:40:05;16.00;99.90
62555;DHT22;48610;52.144;8.624;2022-09-23T17:43:06;16.00;99.90
62555;DHT22;48610;52.144;8.624;2022-09-23T17:46:09;16.00;99.70
62555;DHT22;48610;52.144;8.624;2022-09-23T17:49:12;16.00;99.90
62555;DHT22;48610;52.144;8.624;2022-09-23T17:52:12;15.90;99.90
62555;DHT22;48610;52.144;8.624;2022-09-23T17:55:13;15.90;99.90
62555;DHT22;48610;52.144;8.624;2022-09-23T17:58:14;15.80;99.90
62555;DHT22;48610;52.144;8.624;2022-09-23T18:01:19;15.70;99.90
62555;DHT22;48610;52.144;8.624;2022-09-23T18:04:21;15.70;99.90
62555;DHT22;48610;52.144;8.624;2022-09-23T18:07:21;15.60;99.90
62555;DHT22;48610;52.144;8.624;2022-09-23T18:10:22;15.60;99.90
62555;DHT22;48610;52.144;8.624;2022-09-23T18:13:22;15.60;99.90
62555;DHT22;48610;52.144;8.624;2022-09-23T18:16:25;15.60;99.90
62555;DHT22;48610;52.144;8.624;2022-09-23T18:19:26;15.50;99.90
62555;DHT22;48610;52.144;8.624;2022-09-23T18:22:27;15.50;99.90
62555;DHT22;48610;52.144;8.624;2022-09-23T18:25:27;15.50;99.90
62555;DHT22;48610;52.144;8.624;2022-09-23T18:28:29;15.50;99.90
62555;DHT22;48610;52.144;8.624;2022-09-23T18:31:31;15.40;99.90
62555;DHT22;48610;52.144;8.624;2022-09-23T18:34:34;15.30;99.90
62555;DHT22;48610;52.144;8.624;2022-09-23T18:37:34;15.30;99.90
62555;DHT22;48610;52.144;8.624;2022-09-23T18:40:35;15.20;99.90
62555;DHT22;48610;52.144;8.624;2022-09-23T18:43:36;15.20;99.90
62555;DHT22;48610;52.144;8.624;2022-09-23T18:46:37;15.20;99.90
62555;DHT22;48610;52.144;8.624;2022-09-23T18:49:38;15.10;99.90
62555;DHT22;48610;52.144;8.624;2022-09-23T18:53:00;15.10;99.90
62555;DHT22;48610;52.144;8.624;2022-09-23T18:56:05;15.10;99.90
62555;DHT22;48610;52.144;8.624;2022-09-23T18:59:16;15.10;99.90
62555;DHT22;48610;52.144;8.624;2022-09-23T19:02:18;15.00;99.90
62555;DHT22;48610;52.144;8.624;2022-09-23T19:05:19;15.00;99.90
62555;DHT22;48610;52.144;8.624;2022-09-23T19:08:19;15.00;99.90
62555;DHT22;48610;52.144;8.624;2022-09-23T19:11:21;14.90;99.90
62555;DHT22;48610;52.144;8.624;2022-09-23T19:14:23;15.00;99.90
62555;DHT22;48610;52.144;8.624;2022-09-23T19:17:23;14.90;99.90
62555;DHT22;48610;52.144;8.624;2022-09-23T19:20:24;14.60;99.90
62555;DHT22;48610;52.144;8.624;2022-09-23T19:23:29;14.60;99.90
62555;DHT22;48610;52.144;8.624;2022-09-23T19:26:37;14.60;99.90
62555;DHT22;48610;52.144;8.624;2022-09-23T19:29:40;14.70;99.90
62555;DHT22;48610;52.144;8.624;2022-09-23T19:32:43;14.70;99.90
62555;DHT22;48610;52.144;8.624;2022-09-23T19:35:45;14.70;99.90
62555;DHT22;48610;52.144;8.624;2022-09-23T19:38:46;14.70;99.90
62555;DHT22;48610;52.144;8.624;2022-09-23T19:41:48;14.60;99.90
62555;DHT22;48610;52.144;8.624;2022-09-23T19:44:48;14.60;99.90
62555;DHT22;48610;52.144;8.624;2022-09-23T19:47:53;14.50;99.90
62555;DHT22;48610;52.144;8.624;2022-09-23T19:50:55;14.50;99.90
62555;DHT22;48610;52.144;8.624;2022-09-23T19:53:56;14.60;99.90
62555;DHT22;48610;52.144;8.624;2022-09-23T19:56:57;14.60;99.90
62555;DHT22;48610;52.144;8.624;2022-09-23T19:59:58;14.70;99.90
62555;DHT22;48610;52.144;8.624;2022-09-23T20:02:59;14.70;99.90
62555;DHT22;48610;52.144;8.624;2022-09-23T20:06:02;14.60;99.90
62555;DHT22;48610;52.144;8.624;2022-09-23T20:09:03;14.60;99.90
62555;DHT22;48610;52.144;8.624;2022-09-23T20:12:04;14.70;99.90
62555;DHT22;48610;52.144;8.624;2022-09-23T20:15:05;14.70;99.90
62555;DHT22;48610;52.144;8.624;2022-09-23T20:18:06;14.60;99.90
62555;DHT22;48610;52.144;8.624;2022-09-23T20:21:08;14.40;99.90
62555;DHT22;48610;52.144;8.624;2022-09-23T20:24:09;14.30;99.90
62555;DHT22;48610;52.144;8.624;2022-09-23T20:27:11;14.30;99.90
62555;DHT22;48610;52.144;8.624;2022-09-23T20:30:11;14.20;99.90
62555;DHT22;48610;52.144;8.624;2022-09-23T20:33:12;14.20;99.90
62555;DHT22;48610;52.144;8.624;2022-09-23T20:36:15;14.30;99.90
62555;DHT22;48610;52.144;8.624;2022-09-23T20:39:16;14.30;99.90
62555;DHT22;48610;52.144;8.624;2022-09-23T20:42:18;14.20;99.90
62555;DHT22;48610;52.144;8.624;2022-09-23T20:45:19;14.30;99.90
62555;DHT22;48610;52.144;8.624;2022-09-23T20:48:20;14.20;99.90
62555;DHT22;48610;52.144;8.624;2022-09-23T20:51:22;14.20;99.90
62555;DHT22;48610;52.144;8.624;2022-09-23T20:54:23;14.20;99.90
62555;DHT22;48610;52.144;8.624;2022-09-23T20:57:24;14.20;99.90
62555;DHT22;48610;52.144;8.624;2022-09-23T21:00:26;14.20;99.90
62555;DHT22;48610;52.144;8.624;2022-09-23T21:03:29;14.30;99.90
62555;DHT22;48610;52.144;8.624;2022-09-23T21:06:35;14.30;99.90
62555;DHT22;48610;52.144;8.624;2022-09-23T21:09:36;14.30;99.90